Accueil
METAR-TAF:

METAR-TAF

Aéroports :

Corvallis, Oregon, États-Unis

latitude: 44-30N, longitude: 123-17W, altitude: 75 m

Observation

Le bulletin a été fait il y a 1 heure et 8 minutes, à 20:56 UTC
Vent calme
Température 2°C
Humidité 75%
Pression 1031 hPa
Visibilité: 16.1 km
Ciel clair

METAR: KCVO 122056Z AUTO 00000KT 10SM CLR 02/M02 A3045 RMK AO2 SLP315 T00221022 58020 FZRANO

Heure: 14:04 (22:04 UTC)


TAF: absent

Observations et prévisions météorologiques de plus de 4000 aéroports (messages METAR et TAF).

Les stations disponibles sont représentées par des disques jaunes et rouges sur la carte.

Passer la souris dessus pour voir le nom de la station.

Cliquer dessus pour voir les observations et prévisions météorologiques.

Pour changer de carte: cliquez sur les boutons verts avec une croix noire pour zoomer, sur le bouton vert avec un tiret pour effectuer un zoom arrière, ou sur les flèches vertes pour les cartes adjacentes.


METAR-TAF: